sensor_id;sensor_type;location;lat;lon;timestamp;temperature;humidity
37052;DHT22;22964;52.272;13.356;2022-09-25T00:00:30;16.00;67.10
37052;DHT22;22964;52.272;13.356;2022-09-25T00:02:56;16.00;67.20
37052;DHT22;22964;52.272;13.356;2022-09-25T00:05:21;16.00;67.40
37052;DHT22;22964;52.272;13.356;2022-09-25T00:07:47;16.00;67.20
37052;DHT22;22964;52.272;13.356;2022-09-25T00:10:12;16.10;67.20
37052;DHT22;22964;52.272;13.356;2022-09-25T00:12:38;16.10;67.10
37052;DHT22;22964;52.272;13.356;2022-09-25T00:15:04;16.00;66.90
37052;DHT22;22964;52.272;13.356;2022-09-25T00:17:30;16.10;67.10
37052;DHT22;22964;52.272;13.356;2022-09-25T00:19:58;16.10;67.10
37052;DHT22;22964;52.272;13.356;2022-09-25T00:22:24;16.10;66.90
37052;DHT22;22964;52.272;13.356;2022-09-25T00:24:51;16.10;66.70
37052;DHT22;22964;52.272;13.356;2022-09-25T00:27:17;16.10;66.60
37052;DHT22;22964;52.272;13.356;2022-09-25T00:29:44;16.10;66.50
37052;DHT22;22964;52.272;13.356;2022-09-25T00:32:12;16.10;66.40
37052;DHT22;22964;52.272;13.356;2022-09-25T00:34:38;16.20;66.20
37052;DHT22;22964;52.272;13.356;2022-09-25T00:37:05;16.20;66.20
37052;DHT22;22964;52.272;13.356;2022-09-25T00:39:32;16.30;66.20
37052;DHT22;22964;52.272;13.356;2022-09-25T00:41:58;16.30;66.20
37052;DHT22;22964;52.272;13.356;2022-09-25T00:47:18;16.30;67.20
37052;DHT22;22964;52.272;13.356;2022-09-25T00:49:45;16.30;67.10
37052;DHT22;22964;52.272;13.356;2022-09-25T00:52:12;16.30;67.10
37052;DHT22;22964;52.272;13.356;2022-09-25T00:57:13;16.30;67.60
37052;DHT22;22964;52.272;13.356;2022-09-25T00:59:51;16.30;67.60
37052;DHT22;22964;52.272;13.356;2022-09-25T01:02:22;16.20;67.30
37052;DHT22;22964;52.272;13.356;2022-09-25T01:04:50;16.20;67.20
37052;DHT22;22964;52.272;13.356;2022-09-25T01:07:16;16.20;67.20
37052;DHT22;22964;52.272;13.356;2022-09-25T01:09:43;16.20;67.20
37052;DHT22;22964;52.272;13.356;2022-09-25T01:12:08;16.20;67.10
37052;DHT22;22964;52.272;13.356;2022-09-25T01:14:35;16.10;67.00
37052;DHT22;22964;52.272;13.356;2022-09-25T01:17:15;16.10;66.90
37052;DHT22;22964;52.272;13.356;2022-09-25T01:22:57;16.10;66.80
37052;DHT22;22964;52.272;13.356;2022-09-25T01:34:07;16.30;66.70
37052;DHT22;22964;52.272;13.356;2022-09-25T01:36:42;16.30;66.10
37052;DHT22;22964;52.272;13.356;2022-09-25T01:39:20;16.40;65.80
37052;DHT22;22964;52.272;13.356;2022-09-25T01:41:58;16.40;65.70
37052;DHT22;22964;52.272;13.356;2022-09-25T01:44:31;16.40;65.90
37052;DHT22;22964;52.272;13.356;2022-09-25T01:47:10;16.40;66.00
37052;DHT22;22964;52.272;13.356;2022-09-25T01:49:47;16.40;66.40
37052;DHT22;22964;52.272;13.356;2022-09-25T01:52:17;16.40;67.20
37052;DHT22;22964;52.272;13.356;2022-09-25T01:54:49;16.40;65.90
37052;DHT22;22964;52.272;13.356;2022-09-25T01:57:26;16.40;66.10
37052;DHT22;22964;52.272;13.356;2022-09-25T02:00:04;16.40;66.40
37052;DHT22;22964;52.272;13.356;2022-09-25T02:02:40;16.40;67.00
37052;DHT22;22964;52.272;13.356;2022-09-25T02:05:16;16.40;65.70
37052;DHT22;22964;52.272;13.356;2022-09-25T02:07:47;16.50;65.50
37052;DHT22;22964;52.272;13.356;2022-09-25T02:10:22;16.50;65.40
37052;DHT22;22964;52.272;13.356;2022-09-25T02:12:52;16.50;66.20
37052;DHT22;22964;52.272;13.356;2022-09-25T02:15:32;16.50;65.10
37052;DHT22;22964;52.272;13.356;2022-09-25T02:18:02;16.50;65.20
37052;DHT22;22964;52.272;13.356;2022-09-25T02:20:50;16.50;65.80
37052;DHT22;22964;52.272;13.356;2022-09-25T02:23:22;16.60;66.20
37052;DHT22;22964;52.272;13.356;2022-09-25T02:26:04;16.50;65.60
37052;DHT22;22964;52.272;13.356;2022-09-25T02:28:30;16.60;66.30
37052;DHT22;22964;52.272;13.356;2022-09-25T02:30:58;16.50;66.10
37052;DHT22;22964;52.272;13.356;2022-09-25T02:33:24;16.50;66.40
37052;DHT22;22964;52.272;13.356;2022-09-25T02:35:52;16.50;66.40
37052;DHT22;22964;52.272;13.356;2022-09-25T02:38:18;16.50;66.60
37052;DHT22;22964;52.272;13.356;2022-09-25T02:40:56;16.40;66.50
37052;DHT22;22964;52.272;13.356;2022-09-25T02:46:52;16.30;67.50
37052;DHT22;22964;52.272;13.356;2022-09-25T02:49:34;16.20;67.60
37052;DHT22;22964;52.272;13.356;2022-09-25T02:52:33;16.20;67.40
37052;DHT22;22964;52.272;13.356;2022-09-25T02:55:09;16.10;67.80
37052;DHT22;22964;52.272;13.356;2022-09-25T02:57:41;16.10;67.50
37052;DHT22;22964;52.272;13.356;2022-09-25T03:00:10;16.00;67.90
37052;DHT22;22964;52.272;13.356;2022-09-25T03:02:38;16.00;67.70
37052;DHT22;22964;52.272;13.356;2022-09-25T03:05:06;15.90;67.50
37052;DHT22;22964;52.272;13.356;2022-09-25T03:07:34;15.90;67.40
37052;DHT22;22964;52.272;13.356;2022-09-25T03:10:21;15.90;67.10
37052;DHT22;22964;52.272;13.356;2022-09-25T03:12:47;15.90;66.80
37052;DHT22;22964;52.272;13.356;2022-09-25T03:15:13;16.00;66.70
37052;DHT22;22964;52.272;13.356;2022-09-25T03:17:38;16.00;66.60
37052;DHT22;22964;52.272;13.356;2022-09-25T03:20:06;16.10;66.40
37052;DHT22;22964;52.272;13.356;2022-09-25T03:22:32;16.10;66.20
37052;DHT22;22964;52.272;13.356;2022-09-25T03:24:58;16.20;66.10
37052;DHT22;22964;52.272;13.356;2022-09-25T03:27:23;16.20;66.00
37052;DHT22;22964;52.272;13.356;2022-09-25T03:29:54;16.20;66.00
37052;DHT22;22964;52.272;13.356;2022-09-25T03:32:20;16.30;66.20
37052;DHT22;22964;52.272;13.356;2022-09-25T03:34:46;16.20;66.20
37052;DHT22;22964;52.272;13.356;2022-09-25T03:37:12;16.30;66.30
37052;DHT22;22964;52.272;13.356;2022-09-25T03:39:37;16.30;66.30
37052;DHT22;22964;52.272;13.356;2022-09-25T03:42:03;16.20;66.40
37052;DHT22;22964;52.272;13.356;2022-09-25T03:44:30;16.20;66.40
37052;DHT22;22964;52.272;13.356;2022-09-25T03:46:55;16.20;66.40
37052;DHT22;22964;52.272;13.356;2022-09-25T03:49:21;16.20;66.20
37052;DHT22;22964;52.272;13.356;2022-09-25T03:51:47;16.20;66.00
37052;DHT22;22964;52.272;13.356;2022-09-25T03:54:13;16.20;66.00
37052;DHT22;22964;52.272;13.356;2022-09-25T03:56:38;16.20;66.10
37052;DHT22;22964;52.272;13.356;2022-09-25T03:59:04;16.20;66.10
37052;DHT22;22964;52.272;13.356;2022-09-25T04:01:30;16.30;66.20
37052;DHT22;22964;52.272;13.356;2022-09-25T04:03:56;16.30;66.30
37052;DHT22;22964;52.272;13.356;2022-09-25T04:06:24;16.20;66.30
37052;DHT22;22964;52.272;13.356;2022-09-25T04:08:50;16.30;66.40
37052;DHT22;22964;52.272;13.356;2022-09-25T04:11:18;16.30;67.10
37052;DHT22;22964;52.272;13.356;2022-09-25T04:13:44;16.30;66.20
37052;DHT22;22964;52.272;13.356;2022-09-25T04:16:11;16.30;66.20
37052;DHT22;22964;52.272;13.356;2022-09-25T04:18:37;16.30;66.60
37052;DHT22;22964;52.272;13.356;2022-09-25T04:21:08;16.30;66.70
37052;DHT22;22964;52.272;13.356;2022-09-25T04:23:35;16.30;66.80
37052;DHT22;22964;52.272;13.356;2022-09-25T04:26:01;16.30;66.90
37052;DHT22;22964;52.272;13.356;2022-09-25T04:28:27;16.30;66.90
37052;DHT22;22964;52.272;13.356;2022-09-25T04:30:56;16.30;67.10
37052;DHT22;22964;52.272;13.356;2022-09-25T04:33:21;16.30;67.00
37052;DHT22;22964;52.272;13.356;2022-09-25T04:36:06;16.20;67.20
37052;DHT22;22964;52.272;13.356;2022-09-25T04:38:31;16.10;67.50
37052;DHT22;22964;52.272;13.356;2022-09-25T04:40:58;16.10;68.60
37052;DHT22;22964;52.272;13.356;2022-09-25T04:43:26;16.00;68.10
37052;DHT22;22964;52.272;13.356;2022-09-25T04:45:52;16.00;68.30
37052;DHT22;22964;52.272;13.356;2022-09-25T04:48:18;15.90;68.50
37052;DHT22;22964;52.272;13.356;2022-09-25T04:50:49;15.80;68.70
37052;DHT22;22964;52.272;13.356;2022-09-25T04:53:16;15.70;69.00
37052;DHT22;22964;52.272;13.356;2022-09-25T04:55:42;15.70;68.90
37052;DHT22;22964;52.272;13.356;2022-09-25T04:58:09;15.70;68.90
37052;DHT22;22964;52.272;13.356;2022-09-25T05:00:35;15.70;69.70
37052;DHT22;22964;52.272;13.356;2022-09-25T05:03:03;15.70;68.60
37052;DHT22;22964;52.272;13.356;2022-09-25T05:05:29;15.70;68.40
37052;DHT22;22964;52.272;13.356;2022-09-25T05:07:57;15.70;68.30
37052;DHT22;22964;52.272;13.356;2022-09-25T05:10:24;15.80;68.30
37052;DHT22;22964;52.272;13.356;2022-09-25T05:12:56;15.80;68.10
37052;DHT22;22964;52.272;13.356;2022-09-25T05:15:23;15.90;68.10
37052;DHT22;22964;52.272;13.356;2022-09-25T05:17:49;15.90;67.90
37052;DHT22;22964;52.272;13.356;2022-09-25T05:20:15;16.00;67.80
37052;DHT22;22964;52.272;13.356;2022-09-25T05:22:41;16.00;67.80
37052;DHT22;22964;52.272;13.356;2022-09-25T05:25:07;16.00;67.70
37052;DHT22;22964;52.272;13.356;2022-09-25T05:27:34;16.10;67.70
37052;DHT22;22964;52.272;13.356;2022-09-25T05:29:59;16.10;67.60
37052;DHT22;22964;52.272;13.356;2022-09-25T05:32:25;16.10;67.50
37052;DHT22;22964;52.272;13.356;2022-09-25T05:34:51;16.10;67.40
37052;DHT22;22964;52.272;13.356;2022-09-25T05:37:17;16.20;67.40
37052;DHT22;22964;52.272;13.356;2022-09-25T05:39:43;16.20;67.30
37052;DHT22;22964;52.272;13.356;2022-09-25T05:42:08;16.30;67.30
37052;DHT22;22964;52.272;13.356;2022-09-25T05:44:34;16.30;67.20
37052;DHT22;22964;52.272;13.356;2022-09-25T05:47:00;16.40;67.30
37052;DHT22;22964;52.272;13.356;2022-09-25T05:49:28;16.40;67.20
37052;DHT22;22964;52.272;13.356;2022-09-25T05:51:54;16.40;67.20
37052;DHT22;22964;52.272;13.356;2022-09-25T05:54:19;16.50;67.20
37052;DHT22;22964;52.272;13.356;2022-09-25T05:56:45;16.50;67.00
37052;DHT22;22964;52.272;13.356;2022-09-25T05:59:11;16.50;66.80
37052;DHT22;22964;52.272;13.356;2022-09-25T06:01:36;16.50;66.70
37052;DHT22;22964;52.272;13.356;2022-09-25T06:04:02;16.60;66.70
37052;DHT22;22964;52.272;13.356;2022-09-25T06:06:29;16.60;66.70
37052;DHT22;22964;52.272;13.356;2022-09-25T06:08:56;16.60;66.70
37052;DHT22;22964;52.272;13.356;2022-09-25T06:11:22;16.60;66.60
37052;DHT22;22964;52.272;13.356;2022-09-25T06:13:48;16.70;66.50
37052;DHT22;22964;52.272;13.356;2022-09-25T06:16:15;16.70;66.40
37052;DHT22;22964;52.272;13.356;2022-09-25T06:18:45;16.70;66.40
37052;DHT22;22964;52.272;13.356;2022-09-25T06:21:11;16.70;66.30
37052;DHT22;22964;52.272;13.356;2022-09-25T06:23:37;16.80;66.20
37052;DHT22;22964;52.272;13.356;2022-09-25T06:26:04;16.80;66.20
37052;DHT22;22964;52.272;13.356;2022-09-25T06:28:31;16.80;66.20
37052;DHT22;22964;52.272;13.356;2022-09-25T06:31:01;16.90;66.00
37052;DHT22;22964;52.272;13.356;2022-09-25T06:33:26;16.90;66.00
37052;DHT22;22964;52.272;13.356;2022-09-25T06:35:52;16.90;65.90
37052;DHT22;22964;52.272;13.356;2022-09-25T06:38:18;17.00;65.90
37052;DHT22;22964;52.272;13.356;2022-09-25T06:40:43;17.00;65.90
37052;DHT22;22964;52.272;13.356;2022-09-25T06:43:11;17.00;65.80
37052;DHT22;22964;52.272;13.356;2022-09-25T06:45:37;17.10;65.70
37052;DHT22;22964;52.272;13.356;2022-09-25T06:48:09;17.10;65.60
37052;DHT22;22964;52.272;13.356;2022-09-25T06:50:51;17.10;65.60
37052;DHT22;22964;52.272;13.356;2022-09-25T06:53:18;17.20;65.50
37052;DHT22;22964;52.272;13.356;2022-09-25T06:55:45;17.20;65.30
37052;DHT22;22964;52.272;13.356;2022-09-25T06:58:22;17.20;66.10
37052;DHT22;22964;52.272;13.356;2022-09-25T07:00:49;17.20;65.10
37052;DHT22;22964;52.272;13.356;2022-09-25T07:03:15;17.20;65.10
37052;DHT22;22964;52.272;13.356;2022-09-25T07:06:01;17.20;65.10
37052;DHT22;22964;52.272;13.356;2022-09-25T07:08:26;17.30;65.40
37052;DHT22;22964;52.272;13.356;2022-09-25T07:10:54;17.30;65.30
37052;DHT22;22964;52.272;13.356;2022-09-25T07:13:22;17.30;65.30
37052;DHT22;22964;52.272;13.356;2022-09-25T07:15:57;17.30;65.00
37052;DHT22;22964;52.272;13.356;2022-09-25T07:18:24;17.40;65.20
37052;DHT22;22964;52.272;13.356;2022-09-25T07:20:50;17.40;65.10
37052;DHT22;22964;52.272;13.356;2022-09-25T07:23:18;17.40;64.80
37052;DHT22;22964;52.272;13.356;2022-09-25T07:25:45;17.40;64.80
37052;DHT22;22964;52.272;13.356;2022-09-25T07:28:12;17.50;64.90
37052;DHT22;22964;52.272;13.356;2022-09-25T07:30:41;17.50;65.20
37052;DHT22;22964;52.272;13.356;2022-09-25T07:33:07;17.50;65.40
37052;DHT22;22964;52.272;13.356;2022-09-25T07:35:34;17.50;65.40
37052;DHT22;22964;52.272;13.356;2022-09-25T07:38:00;17.50;65.40
37052;DHT22;22964;52.272;13.356;2022-09-25T07:40:26;17.50;65.40
37052;DHT22;22964;52.272;13.356;2022-09-25T07:42:58;17.50;65.70
37052;DHT22;22964;52.272;13.356;2022-09-25T07:45:24;17.50;65.60
37052;DHT22;22964;52.272;13.356;2022-09-25T07:47:54;17.50;65.70
37052;DHT22;22964;52.272;13.356;2022-09-25T07:50:19;17.50;65.90
37052;DHT22;22964;52.272;13.356;2022-09-25T07:52:45;17.50;66.00
37052;DHT22;22964;52.272;13.356;2022-09-25T07:55:11;17.50;67.00
37052;DHT22;22964;52.272;13.356;2022-09-25T07:57:36;17.50;66.50
37052;DHT22;22964;52.272;13.356;2022-09-25T08:00:02;17.50;66.90
37052;DHT22;22964;52.272;13.356;2022-09-25T08:02:37;17.50;67.20
37052;DHT22;22964;52.272;13.356;2022-09-25T08:05:03;17.60;67.10
37052;DHT22;22964;52.272;13.356;2022-09-25T08:07:29;17.70;67.10
37052;DHT22;22964;52.272;13.356;2022-09-25T08:09:55;17.70;66.90
37052;DHT22;22964;52.272;13.356;2022-09-25T08:12:21;17.80;67.00
37052;DHT22;22964;52.272;13.356;2022-09-25T08:14:50;17.90;66.90
37052;DHT22;22964;52.272;13.356;2022-09-25T08:17:16;18.00;66.60
37052;DHT22;22964;52.272;13.356;2022-09-25T08:19:41;18.10;66.40
37052;DHT22;22964;52.272;13.356;2022-09-25T08:22:07;18.20;66.40
37052;DHT22;22964;52.272;13.356;2022-09-25T08:24:33;18.30;66.00
37052;DHT22;22964;52.272;13.356;2022-09-25T08:26:58;18.40;65.70
37052;DHT22;22964;52.272;13.356;2022-09-25T08:29:24;18.50;65.40
37052;DHT22;22964;52.272;13.356;2022-09-25T08:31:50;18.60;65.30
37052;DHT22;22964;52.272;13.356;2022-09-25T08:34:16;18.60;65.00
37052;DHT22;22964;52.272;13.356;2022-09-25T08:36:42;18.60;65.00
37052;DHT22;22964;52.272;13.356;2022-09-25T08:39:08;18.70;64.90
37052;DHT22;22964;52.272;13.356;2022-09-25T08:41:45;18.80;65.10
37052;DHT22;22964;52.272;13.356;2022-09-25T08:44:41;18.80;64.80
37052;DHT22;22964;52.272;13.356;2022-09-25T08:47:27;18.90;64.50
37052;DHT22;22964;52.272;13.356;2022-09-25T08:50:15;19.00;64.70
37052;DHT22;22964;52.272;13.356;2022-09-25T08:52:45;19.20;65.30
37052;DHT22;22964;52.272;13.356;2022-09-25T08:57:46;19.50;64.50
37052;DHT22;22964;52.272;13.356;2022-09-25T09:00:20;19.60;64.40
37052;DHT22;22964;52.272;13.356;2022-09-25T09:02:53;19.80;63.50
37052;DHT22;22964;52.272;13.356;2022-09-25T09:05:23;20.00;63.30
37052;DHT22;22964;52.272;13.356;2022-09-25T09:07:58;20.10;63.10
37052;DHT22;22964;52.272;13.356;2022-09-25T09:13:21;20.40;62.60
37052;DHT22;22964;52.272;13.356;2022-09-25T09:16:01;20.50;61.30
37052;DHT22;22964;52.272;13.356;2022-09-25T09:18:34;20.60;61.00
37052;DHT22;22964;52.272;13.356;2022-09-25T09:21:13;20.70;60.70
37052;DHT22;22964;52.272;13.356;2022-09-25T09:29:28;20.90;59.80
37052;DHT22;22964;52.272;13.356;2022-09-25T09:35:02;21.00;59.80
37052;DHT22;22964;52.272;13.356;2022-09-25T09:49:03;21.50;59.00
37052;DHT22;22964;52.272;13.356;2022-09-25T09:51:45;21.60;59.00
37052;DHT22;22964;52.272;13.356;2022-09-25T09:54:23;21.70;58.70
37052;DHT22;22964;52.272;13.356;2022-09-25T09:56:53;21.70;58.50
37052;DHT22;22964;52.272;13.356;2022-09-25T09:59:25;21.80;58.30
37052;DHT22;22964;52.272;13.356;2022-09-25T10:02:03;21.80;58.20
37052;DHT22;22964;52.272;13.356;2022-09-25T10:04:35;21.80;57.60
37052;DHT22;22964;52.272;13.356;2022-09-25T10:07:09;21.90;57.90
37052;DHT22;22964;52.272;13.356;2022-09-25T10:09:36;21.90;58.60
37052;DHT22;22964;52.272;13.356;2022-09-25T10:12:18;22.00;58.20
37052;DHT22;22964;52.272;13.356;2022-09-25T10:14:47;22.10;57.80
37052;DHT22;22964;52.272;13.356;2022-09-25T10:17:13;22.20;58.80
37052;DHT22;22964;52.272;13.356;2022-09-25T10:20:19;22.30;57.90
37052;DHT22;22964;52.272;13.356;2022-09-25T10:22:45;22.40;57.40
37052;DHT22;22964;52.272;13.356;2022-09-25T10:25:12;22.50;57.50
37052;DHT22;22964;52.272;13.356;2022-09-25T10:27:42;22.60;57.60
37052;DHT22;22964;52.272;13.356;2022-09-25T10:33:02;22.90;57.50
37052;DHT22;22964;52.272;13.356;2022-09-25T10:38:05;23.20;56.20
37052;DHT22;22964;52.272;13.356;2022-09-25T10:40:41;23.30;56.50
37052;DHT22;22964;52.272;13.356;2022-09-25T10:43:19;23.50;56.50
37052;DHT22;22964;52.272;13.356;2022-09-25T10:45:46;23.60;55.50
37052;DHT22;22964;52.272;13.356;2022-09-25T10:51:08;24.00;56.50
37052;DHT22;22964;52.272;13.356;2022-09-25T10:53:34;24.20;55.70
37052;DHT22;22964;52.272;13.356;2022-09-25T10:56:05;24.30;54.70
37052;DHT22;22964;52.272;13.356;2022-09-25T10:58:54;24.40;52.70
37052;DHT22;22964;52.272;13.356;2022-09-25T11:01:29;24.40;53.20
37052;DHT22;22964;52.272;13.356;2022-09-25T11:03:57;24.40;53.10
37052;DHT22;22964;52.272;13.356;2022-09-25T11:06:26;24.50;53.60
37052;DHT22;22964;52.272;13.356;2022-09-25T11:11:23;24.60;53.10
37052;DHT22;22964;52.272;13.356;2022-09-25T11:13:55;24.70;53.30
37052;DHT22;22964;52.272;13.356;2022-09-25T11:16:42;24.80;52.60
37052;DHT22;22964;52.272;13.356;2022-09-25T11:19:25;24.80;52.20
37052;DHT22;22964;52.272;13.356;2022-09-25T11:22:11;24.90;52.50
37052;DHT22;22964;52.272;13.356;2022-09-25T11:27:16;25.10;51.80
37052;DHT22;22964;52.272;13.356;2022-09-25T11:41:32;25.60;51.00
37052;DHT22;22964;52.272;13.356;2022-09-25T11:44:11;25.80;50.50
37052;DHT22;22964;52.272;13.356;2022-09-25T11:49:29;25.90;49.50
37052;DHT22;22964;52.272;13.356;2022-09-25T11:54:32;26.00;50.40
37052;DHT22;22964;52.272;13.356;2022-09-25T12:02:48;26.00;47.00
37052;DHT22;22964;52.272;13.356;2022-09-25T12:05:28;25.90;46.60
37052;DHT22;22964;52.272;13.356;2022-09-25T12:13:15;25.90;46.50
37052;DHT22;22964;52.272;13.356;2022-09-25T12:18:50;25.80;47.20
37052;DHT22;22964;52.272;13.356;2022-09-25T12:24:15;25.70;46.60
37052;DHT22;22964;52.272;13.356;2022-09-25T12:29:51;25.60;45.80
37052;DHT22;22964;52.272;13.356;2022-09-25T12:32:28;25.60;46.20
37052;DHT22;22964;52.272;13.356;2022-09-25T12:37:32;25.50;46.40
37052;DHT22;22964;52.272;13.356;2022-09-25T12:40:01;25.50;47.40
37052;DHT22;22964;52.272;13.356;2022-09-25T12:45:19;25.50;46.50
37052;DHT22;22964;52.272;13.356;2022-09-25T12:53:47;25.50;46.90
37052;DHT22;22964;52.272;13.356;2022-09-25T12:56:19;25.50;46.20
37052;DHT22;22964;52.272;13.356;2022-09-25T12:59:03;25.50;46.70
37052;DHT22;22964;52.272;13.356;2022-09-25T13:11:54;25.60;45.70
37052;DHT22;22964;52.272;13.356;2022-09-25T13:17:35;25.70;45.30
37052;DHT22;22964;52.272;13.356;2022-09-25T13:23:13;25.80;45.40
37052;DHT22;22964;52.272;13.356;2022-09-25T13:25:50;25.90;45.10
37052;DHT22;22964;52.272;13.356;2022-09-25T13:28:37;25.90;45.20
37052;DHT22;22964;52.272;13.356;2022-09-25T13:38:54;26.20;46.00
37052;DHT22;22964;52.272;13.356;2022-09-25T13:41:55;26.20;45.40
37052;DHT22;22964;52.272;13.356;2022-09-25T13:49:50;26.40;44.70
37052;DHT22;22964;52.272;13.356;2022-09-25T13:52:30;26.30;45.50
37052;DHT22;22964;52.272;13.356;2022-09-25T14:00:21;26.30;44.60
37052;DHT22;22964;52.272;13.356;2022-09-25T14:02:48;26.20;45.10
37052;DHT22;22964;52.272;13.356;2022-09-25T14:05:18;26.20;45.00
37052;DHT22;22964;52.272;13.356;2022-09-25T14:07:48;26.20;44.90
37052;DHT22;22964;52.272;13.356;2022-09-25T14:10:15;26.20;44.80
37052;DHT22;22964;52.272;13.356;2022-09-25T14:12:44;26.20;44.60
37052;DHT22;22964;52.272;13.356;2022-09-25T14:15:32;26.20;44.20
37052;DHT22;22964;52.272;13.356;2022-09-25T14:18:05;26.20;43.60
37052;DHT22;22964;52.272;13.356;2022-09-25T14:20:36;26.20;44.20
37052;DHT22;22964;52.272;13.356;2022-09-25T14:25:45;26.10;43.30
37052;DHT22;22964;52.272;13.356;2022-09-25T14:39:25;25.70;43.10
37052;DHT22;22964;52.272;13.356;2022-09-25T14:41:57;25.60;43.50
37052;DHT22;22964;52.272;13.356;2022-09-25T14:47:15;25.30;43.20
37052;DHT22;22964;52.272;13.356;2022-09-25T14:49:45;25.20;43.80
37052;DHT22;22964;52.272;13.356;2022-09-25T14:52:18;25.10;43.80
37052;DHT22;22964;52.272;13.356;2022-09-25T14:54:47;25.00;44.00
37052;DHT22;22964;52.272;13.356;2022-09-25T14:57:15;24.90;44.20
37052;DHT22;22964;52.272;13.356;2022-09-25T14:59:48;24.80;44.50
37052;DHT22;22964;52.272;13.356;2022-09-25T15:02:26;24.70;44.60
37052;DHT22;22964;52.272;13.356;2022-09-25T15:04:57;24.60;44.70
37052;DHT22;22964;52.272;13.356;2022-09-25T15:07:24;24.60;45.50
37052;DHT22;22964;52.272;13.356;2022-09-25T15:09:52;24.50;45.30
37052;DHT22;22964;52.272;13.356;2022-09-25T15:12:31;24.40;45.50
37052;DHT22;22964;52.272;13.356;2022-09-25T15:15:06;24.40;45.30
37052;DHT22;22964;52.272;13.356;2022-09-25T15:17:44;24.40;46.30
37052;DHT22;22964;52.272;13.356;2022-09-25T15:20:14;24.40;45.70
37052;DHT22;22964;52.272;13.356;2022-09-25T15:22:46;24.40;45.80
37052;DHT22;22964;52.272;13.356;2022-09-25T15:25:38;24.30;45.90
37052;DHT22;22964;52.272;13.356;2022-09-25T15:28:07;24.30;46.00
37052;DHT22;22964;52.272;13.356;2022-09-25T15:30:35;24.30;46.10
37052;DHT22;22964;52.272;13.356;2022-09-25T15:33:02;24.20;46.10
37052;DHT22;22964;52.272;13.356;2022-09-25T15:35:28;24.20;46.20
37052;DHT22;22964;52.272;13.356;2022-09-25T15:38:13;24.20;46.40
37052;DHT22;22964;52.272;13.356;2022-09-25T15:40:39;24.10;46.30
37052;DHT22;22964;52.272;13.356;2022-09-25T15:43:13;24.00;46.50
37052;DHT22;22964;52.272;13.356;2022-09-25T15:45:45;24.00;46.90
37052;DHT22;22964;52.272;13.356;2022-09-25T15:48:19;24.00;47.10
37052;DHT22;22964;52.272;13.356;2022-09-25T15:50:46;23.90;47.30
37052;DHT22;22964;52.272;13.356;2022-09-25T15:53:20;23.90;47.40
37052;DHT22;22964;52.272;13.356;2022-09-25T15:55:47;23.80;47.60
37052;DHT22;22964;52.272;13.356;2022-09-25T15:58:14;23.70;47.70
37052;DHT22;22964;52.272;13.356;2022-09-25T16:00:58;23.70;47.80
37052;DHT22;22964;52.272;13.356;2022-09-25T16:03:47;23.60;48.10
37052;DHT22;22964;52.272;13.356;2022-09-25T16:06:41;23.50;48.10
37052;DHT22;22964;52.272;13.356;2022-09-25T16:11:44;23.50;48.50
37052;DHT22;22964;52.272;13.356;2022-09-25T16:14:27;23.40;48.50
37052;DHT22;22964;52.272;13.356;2022-09-25T16:16:56;23.30;48.80
37052;DHT22;22964;52.272;13.356;2022-09-25T16:19:32;23.30;48.70
37052;DHT22;22964;52.272;13.356;2022-09-25T16:22:11;23.30;48.80
37052;DHT22;22964;52.272;13.356;2022-09-25T16:24:39;23.20;48.80
37052;DHT22;22964;52.272;13.356;2022-09-25T16:27:05;23.20;48.80
37052;DHT22;22964;52.272;13.356;2022-09-25T16:29:37;23.20;48.90
37052;DHT22;22964;52.272;13.356;2022-09-25T16:32:11;23.10;49.00
37052;DHT22;22964;52.272;13.356;2022-09-25T16:34:39;23.10;49.00
37052;DHT22;22964;52.272;13.356;2022-09-25T16:37:17;23.00;48.90
37052;DHT22;22964;52.272;13.356;2022-09-25T16:39:43;22.90;48.90
37052;DHT22;22964;52.272;13.356;2022-09-25T16:44:47;22.80;49.00
37052;DHT22;22964;52.272;13.356;2022-09-25T16:49:41;22.70;49.10
37052;DHT22;22964;52.272;13.356;2022-09-25T16:52:14;22.60;49.10
37052;DHT22;22964;52.272;13.356;2022-09-25T16:54:44;22.60;50.00
37052;DHT22;22964;52.272;13.356;2022-09-25T16:57:09;22.50;49.10
37052;DHT22;22964;52.272;13.356;2022-09-25T16:59:41;22.50;49.20
37052;DHT22;22964;52.272;13.356;2022-09-25T17:02:26;22.40;49.30
37052;DHT22;22964;52.272;13.356;2022-09-25T17:04:59;22.40;49.50
37052;DHT22;22964;52.272;13.356;2022-09-25T17:07:25;22.30;49.40
37052;DHT22;22964;52.272;13.356;2022-09-25T17:09:51;22.30;49.50
37052;DHT22;22964;52.272;13.356;2022-09-25T17:12:19;22.20;49.60
37052;DHT22;22964;52.272;13.356;2022-09-25T17:14:46;22.20;49.80
37052;DHT22;22964;52.272;13.356;2022-09-25T17:17:16;22.10;49.80
37052;DHT22;22964;52.272;13.356;2022-09-25T17:19:42;22.10;50.00
37052;DHT22;22964;52.272;13.356;2022-09-25T17:22:08;22.00;50.00
37052;DHT22;22964;52.272;13.356;2022-09-25T17:24:34;22.00;50.20
37052;DHT22;22964;52.272;13.356;2022-09-25T17:26:59;21.90;50.20
37052;DHT22;22964;52.272;13.356;2022-09-25T17:29:26;21.90;50.40
37052;DHT22;22964;52.272;13.356;2022-09-25T17:31:53;21.90;50.40
37052;DHT22;22964;52.272;13.356;2022-09-25T17:34:20;21.80;50.40
37052;DHT22;22964;52.272;13.356;2022-09-25T17:36:50;21.80;50.50
37052;DHT22;22964;52.272;13.356;2022-09-25T17:39:16;21.80;50.50
37052;DHT22;22964;52.272;13.356;2022-09-25T17:41:42;21.70;50.50
37052;DHT22;22964;52.272;13.356;2022-09-25T17:44:13;21.70;50.60
37052;DHT22;22964;52.272;13.356;2022-09-25T17:46:40;21.60;50.80
37052;DHT22;22964;52.272;13.356;2022-09-25T17:49:06;21.60;50.80
37052;DHT22;22964;52.272;13.356;2022-09-25T17:51:32;21.60;50.80
37052;DHT22;22964;52.272;13.356;2022-09-25T17:53:58;21.50;50.80
37052;DHT22;22964;52.272;13.356;2022-09-25T17:56:27;21.50;50.90
37052;DHT22;22964;52.272;13.356;2022-09-25T17:58:54;21.40;50.90
37052;DHT22;22964;52.272;13.356;2022-09-25T18:01:26;21.40;51.00
37052;DHT22;22964;52.272;13.356;2022-09-25T18:03:54;21.30;51.10
37052;DHT22;22964;52.272;13.356;2022-09-25T18:06:20;21.30;51.20
37052;DHT22;22964;52.272;13.356;2022-09-25T18:08:46;21.20;51.10
37052;DHT22;22964;52.272;13.356;2022-09-25T18:11:14;21.10;51.30
37052;DHT22;22964;52.272;13.356;2022-09-25T18:13:40;21.10;51.40
37052;DHT22;22964;52.272;13.356;2022-09-25T18:16:13;21.00;51.40
37052;DHT22;22964;52.272;13.356;2022-09-25T18:18:41;20.90;51.60
37052;DHT22;22964;52.272;13.356;2022-09-25T18:21:26;20.90;52.00